createdAt,value
2019-02-12T00:01:16.962Z,96105.08
2019-02-12T00:03:46.777Z,96107.49
2019-02-12T00:06:16.728Z,96109.90
2019-02-12T00:08:46.585Z,96102.68
2019-02-12T00:11:16.513Z,96094.41
2019-02-12T00:13:46.424Z,96112.55
2019-02-12T00:16:16.451Z,96114.72
2019-02-12T00:18:46.436Z,96127.00
2019-02-12T00:21:16.465Z,96120.25
2019-02-12T00:23:46.495Z,96130.47
2019-02-12T00:26:16.329Z,96148.74
2019-02-12T00:28:46.276Z,96149.09
2019-02-12T00:31:16.129Z,96160.31
2019-02-12T00:33:46.141Z,96152.31
2019-02-12T00:36:16.015Z,96151.38
2019-02-12T00:38:45.883Z,96162.41
2019-02-12T00:41:15.777Z,96163.55
2019-02-12T00:43:45.641Z,96169.31
2019-02-12T00:46:15.576Z,96174.13
2019-02-12T00:48:45.483Z,96164.12
2019-02-12T00:51:17.822Z,96172.52
2019-02-12T00:53:47.040Z,96179.05
2019-02-12T00:56:16.973Z,96187.55
2019-02-12T00:58:46.808Z,96185.73
2019-02-12T01:01:16.757Z,96191.34
2019-02-12T01:03:46.745Z,96184.56
2019-02-12T01:06:19.262Z,96196.86
2019-02-12T01:08:49.145Z,96201.79
2019-02-12T01:11:19.107Z,96216.52
2019-02-12T01:13:48.936Z,96218.36
2019-02-12T01:16:18.912Z,96226.02
2019-02-12T01:18:48.904Z,96225.34
2019-02-12T01:21:26.023Z,96222.25
2019-02-12T01:23:50.518Z,96221.33
2019-02-12T01:26:20.344Z,96227.52
2019-02-12T01:28:50.221Z,96234.19
2019-02-12T01:31:20.124Z,96231.81
2019-02-12T01:33:50.087Z,96244.75
2019-02-12T01:36:19.989Z,96244.20
2019-02-12T01:38:49.865Z,96247.87
2019-02-12T01:41:19.744Z,96250.83
2019-02-12T01:43:49.698Z,96251.31
2019-02-12T01:46:19.534Z,96243.55
2019-02-12T01:48:49.418Z,96237.47
2019-02-12T01:51:19.367Z,96249.66
2019-02-12T01:53:49.283Z,96251.27
2019-02-12T01:56:19.180Z,96252.75
2019-02-12T01:58:49.115Z,96261.16
2019-02-12T02:01:18.997Z,96280.91
2019-02-12T02:03:48.914Z,96270.70
2019-02-12T02:06:18.810Z,96271.16
2019-02-12T02:08:48.700Z,96281.15
2019-02-12T02:11:18.659Z,96283.36
2019-02-12T02:13:48.564Z,96274.15
2019-02-12T02:16:18.579Z,96278.47
2019-02-12T02:18:48.421Z,96274.70
2019-02-12T02:21:18.356Z,96274.67
2019-02-12T02:23:48.434Z,96275.16
2019-02-12T02:26:19.464Z,96277.36
2019-02-12T02:28:49.308Z,96284.94
2019-02-12T02:31:19.271Z,96277.95
2019-02-12T02:33:49.177Z,96276.70
2019-02-12T02:36:19.084Z,96278.52
2019-02-12T02:38:48.939Z,96290.13
2019-02-12T02:41:18.862Z,96296.09
2019-02-12T02:43:48.775Z,96288.48
2019-02-12T02:46:18.681Z,96288.70
2019-02-12T02:48:48.569Z,96292.72
2019-02-12T02:51:18.475Z,96298.25
2019-02-12T02:53:48.404Z,96306.28
2019-02-12T02:56:18.313Z,96301.34
2019-02-12T02:58:48.193Z,96299.84
2019-02-12T03:01:18.041Z,96291.80
2019-02-12T03:03:47.976Z,96287.22
2019-02-12T03:06:17.809Z,96294.42
2019-02-12T03:08:47.689Z,96277.06
2019-02-12T03:11:17.517Z,96268.09
2019-02-12T03:13:47.466Z,96268.98
2019-02-12T03:16:17.322Z,96267.63
2019-02-12T03:18:47.294Z,96277.84
2019-02-12T03:21:17.122Z,96277.45
2019-02-12T03:23:47.004Z,96285.50
2019-02-12T03:26:16.832Z,96305.93
2019-02-12T03:28:46.723Z,96288.94
2019-02-12T03:31:16.665Z,96288.63
2019-02-12T03:33:46.491Z,96289.23
2019-02-12T03:36:16.356Z,96291.98
2019-02-12T03:38:46.177Z,96288.28
2019-02-12T03:41:16.093Z,96301.24
2019-02-12T03:43:46.028Z,96300.70
2019-02-12T03:46:15.929Z,96317.56
2019-02-12T03:48:45.858Z,96315.59
2019-02-12T03:51:15.802Z,96318.16
2019-02-12T03:53:45.695Z,96329.23
2019-02-12T03:56:15.799Z,96332.02
2019-02-12T03:58:45.869Z,96335.84
2019-02-12T04:01:15.803Z,96338.53
2019-02-12T04:03:47.036Z,96336.30
2019-02-12T04:06:17.043Z,96329.30
2019-02-12T04:08:46.928Z,96323.23
2019-02-12T04:11:16.964Z,96320.95
2019-02-12T04:13:46.774Z,96322.42
2019-02-12T04:16:16.659Z,96335.03
2019-02-12T04:18:46.530Z,96329.12
2019-02-12T04:21:16.477Z,96328.82
2019-02-12T04:23:46.326Z,96340.68
2019-02-12T04:26:16.168Z,96343.20
2019-02-12T04:28:46.134Z,96351.35
2019-02-12T04:31:15.939Z,96359.98
2019-02-12T04:33:45.880Z,96352.05
2019-02-12T04:36:15.720Z,96362.61
2019-02-12T04:38:45.673Z,96354.79
2019-02-12T04:41:15.576Z,96359.50
2019-02-12T04:43:45.559Z,96359.06
2019-02-12T04:46:15.539Z,96356.05
2019-02-12T04:48:45.425Z,96363.88
2019-02-12T04:51:15.339Z,96367.22
2019-02-12T04:53:45.190Z,96367.08
2019-02-12T04:56:15.199Z,96356.16
2019-02-12T04:58:45.099Z,96352.61
2019-02-12T05:01:15.043Z,96364.23
2019-02-12T05:03:44.867Z,96364.91
2019-02-12T05:06:14.860Z,96360.20
2019-02-12T05:09:21.612Z,96364.55
2019-02-12T05:11:59.724Z,96354.15
2019-02-12T05:14:29.687Z,96355.52
2019-02-12T05:16:59.713Z,96373.85
2019-02-12T05:19:29.589Z,96373.28
2019-02-12T05:21:59.496Z,96379.05
2019-02-12T05:24:29.356Z,96377.53
2019-02-12T05:26:59.238Z,96386.31
2019-02-12T05:29:29.155Z,96385.81
2019-02-12T05:31:59.036Z,96388.94
2019-02-12T05:34:28.851Z,96386.73
2019-02-12T05:36:58.798Z,96392.38
2019-02-12T05:39:28.725Z,96413.16
2019-02-12T05:41:58.699Z,96402.20
2019-02-12T05:44:28.723Z,96401.16
2019-02-12T05:46:58.776Z,96397.02
2019-02-12T05:49:28.598Z,96415.64
2019-02-12T05:51:58.666Z,96403.26
2019-02-12T05:54:28.612Z,96408.63
2019-02-12T05:56:58.432Z,96408.17
2019-02-12T05:59:28.293Z,96408.17
2019-02-12T06:01:58.101Z,96404.98
2019-02-12T06:04:27.969Z,96407.61
2019-02-12T06:06:57.942Z,96412.70
2019-02-12T06:09:27.947Z,96406.42
2019-02-12T06:11:57.797Z,96419.06
2019-02-12T06:14:27.745Z,96417.76
2019-02-12T06:16:57.851Z,96422.15
2019-02-12T06:19:27.726Z,96431.20
2019-02-12T06:21:57.550Z,96435.20
2019-02-12T06:24:27.438Z,96452.39
2019-02-12T06:26:57.334Z,96450.31
2019-02-12T06:29:27.187Z,96443.81
2019-02-12T06:31:57.040Z,96447.61
2019-02-12T06:34:26.907Z,96441.54
2019-02-12T06:36:56.772Z,96440.31
2019-02-12T06:39:26.639Z,96445.08
2019-02-12T06:41:56.598Z,96443.81
2019-02-12T06:44:26.418Z,96448.15
2019-02-12T06:46:56.429Z,96450.23
2019-02-12T06:49:26.266Z,96454.13
2019-02-12T06:51:56.119Z,96451.54
2019-02-12T06:54:25.982Z,96465.43
2019-02-12T06:56:55.920Z,96455.74
2019-02-12T06:59:25.793Z,96462.20
2019-02-12T07:02:32.730Z,96466.80
2019-02-12T07:05:02.573Z,96467.81
2019-02-12T07:10:35.619Z,96472.25
2019-02-12T07:13:39.850Z,96488.42
2019-02-12T07:16:26.526Z,96485.23
2019-02-12T07:19:20.448Z,96484.33
2019-02-12T07:22:37.607Z,96496.60
2019-02-12T07:25:50.366Z,96502.37
2019-02-12T07:29:02.997Z,96516.81
2019-02-12T07:32:31.847Z,96526.02
2019-02-12T07:35:23.229Z,96519.50
2019-02-12T07:38:32.198Z,96520.02
2019-02-12T07:41:20.640Z,96532.55
2019-02-12T07:44:02.797Z,96551.86
2019-02-12T07:47:23.276Z,96559.02
2019-02-12T07:50:20.626Z,96559.12
2019-02-12T07:53:07.976Z,96566.73
2019-02-12T07:56:15.324Z,96578.27
2019-02-12T07:59:23.188Z,96587.17
2019-02-12T08:02:34.075Z,96571.70
2019-02-12T08:05:51.570Z,96565.66
2019-02-12T08:09:05.258Z,96571.63
2019-02-12T08:11:44.047Z,96574.70
2019-02-12T08:14:48.310Z,96576.53
2019-02-12T08:17:47.878Z,96583.75
2019-02-12T08:20:46.290Z,96582.70
2019-02-12T08:23:27.739Z,96580.36
2019-02-12T08:26:25.765Z,96567.62
2019-02-12T08:29:03.604Z,96568.19
2019-02-12T08:32:02.776Z,96576.31
2019-02-12T08:35:15.778Z,96575.25
2019-02-12T08:38:31.101Z,96574.66
2019-02-12T08:41:27.002Z,96566.09
2019-02-12T08:44:40.237Z,96569.73
2019-02-12T08:47:57.296Z,96571.56
2019-02-12T08:50:52.054Z,96577.56
2019-02-12T08:53:50.940Z,96586.48
2019-02-12T08:56:42.998Z,96592.52
2019-02-12T08:59:34.227Z,96591.45
2019-02-12T09:02:23.108Z,96595.05
2019-02-12T09:05:13.236Z,96587.91
2019-02-12T09:07:56.224Z,96594.77
2019-02-12T09:10:51.279Z,96598.95
2019-02-12T09:14:11.445Z,96593.35
2019-02-12T09:17:31.510Z,96589.13
2019-02-12T09:20:31.305Z,96603.75
2019-02-12T09:23:42.733Z,96612.13
2019-02-12T09:27:18.407Z,96613.43
2019-02-12T09:30:13.323Z,96615.58
2019-02-12T09:33:09.217Z,96628.34
2019-02-12T09:36:09.710Z,96630.73
2019-02-12T09:39:27.298Z,96631.68
2019-02-12T09:42:28.800Z,96631.78
2019-02-12T09:45:44.747Z,96636.98
2019-02-12T09:48:20.992Z,96644.02
2019-02-12T09:51:10.300Z,96627.70
2019-02-12T09:54:12.906Z,96639.64
2019-02-12T09:57:18.956Z,96629.63
2019-02-12T10:00:15.638Z,96638.85
2019-02-12T10:03:44.731Z,96630.96
2019-02-12T10:06:45.236Z,96637.72
2019-02-12T10:10:02.050Z,96648.91
2019-02-12T10:13:08.181Z,96636.45
2019-02-12T10:16:19.354Z,96638.99
2019-02-12T10:19:34.526Z,96636.75
2019-02-12T10:23:01.054Z,96652.06
2019-02-12T10:25:54.984Z,96642.27
2019-02-12T10:29:30.602Z,96645.30
2019-02-12T10:32:08.263Z,96654.28
2019-02-12T10:34:30.687Z,96652.76
2019-02-12T10:37:00.581Z,96655.64
2019-02-12T10:39:30.406Z,96661.30
2019-02-12T10:42:00.380Z,96658.72
2019-02-12T10:44:30.327Z,96649.27
2019-02-12T10:47:00.279Z,96658.59
2019-02-12T10:49:30.254Z,96648.25
2019-02-12T10:52:00.145Z,96658.65
2019-02-12T10:54:30.087Z,96647.25
2019-02-12T10:56:59.904Z,96653.82
2019-02-12T10:59:29.858Z,96656.47
2019-02-12T11:01:59.684Z,96644.28
2019-02-12T11:04:29.555Z,96646.24
2019-02-12T11:06:59.512Z,96637.45
2019-02-12T11:09:29.430Z,96634.36
2019-02-12T11:11:59.436Z,96635.49
2019-02-12T11:14:29.523Z,96640.83
2019-02-12T11:16:59.533Z,96633.09
2019-02-12T11:19:29.354Z,96653.17
2019-02-12T11:21:59.228Z,96661.23
2019-02-12T11:24:35.428Z,96648.73
2019-02-12T11:29:36.202Z,96648.69
2019-02-12T11:32:06.311Z,96651.80
2019-02-12T11:34:36.187Z,96656.31
2019-02-12T11:37:06.130Z,96645.05
2019-02-12T11:39:36.031Z,96648.25
2019-02-12T11:42:06.069Z,96643.09
2019-02-12T11:44:36.014Z,96657.36
2019-02-12T11:47:05.892Z,96646.75
2019-02-12T11:49:35.710Z,96639.95
2019-02-12T11:52:05.723Z,96639.70
2019-02-12T11:54:43.404Z,96649.48
2019-02-12T11:57:07.666Z,96641.44
2019-02-12T11:59:37.689Z,96634.68
2019-02-12T12:02:07.963Z,96634.11
2019-02-12T12:04:38.055Z,96642.53
2019-02-12T12:07:08.510Z,96634.80
2019-02-12T12:09:39.633Z,96639.86
2019-02-12T12:12:09.943Z,96637.23
2019-02-12T12:14:40.609Z,96644.36
2019-02-12T12:17:11.000Z,96641.27
2019-02-12T12:19:41.246Z,96646.68
2019-02-12T12:22:11.172Z,96669.17
2019-02-12T12:24:41.113Z,96645.42
2019-02-12T12:27:11.119Z,96653.80
2019-02-12T12:29:41.150Z,96645.99
2019-02-12T12:32:11.176Z,96662.09
2019-02-12T12:34:41.018Z,96655.75
2019-02-12T12:37:10.897Z,96658.41
2019-02-12T12:39:40.868Z,96656.45
2019-02-12T12:42:10.939Z,96653.06
2019-02-12T12:44:42.091Z,96661.73
2019-02-12T12:47:13.073Z,96653.11
2019-02-12T12:49:43.223Z,96654.75
2019-02-12T12:52:13.197Z,96665.02
2019-02-12T12:54:43.208Z,96674.83
2019-02-12T12:57:13.130Z,96659.73
2019-02-12T12:59:43.049Z,96689.70
2019-02-12T13:02:12.891Z,96669.39
2019-02-12T13:04:42.929Z,96672.28
2019-02-12T13:07:13.888Z,96676.67
2019-02-12T13:09:43.807Z,96674.59
2019-02-12T13:12:13.667Z,96667.66
2019-02-12T13:14:43.534Z,96676.05
2019-02-12T13:17:13.400Z,96677.67
2019-02-12T13:19:43.310Z,96669.70
2019-02-12T13:22:13.193Z,96673.47
2019-02-12T13:24:43.169Z,96681.86
2019-02-12T13:27:13.037Z,96678.52
2019-02-12T13:29:43.830Z,96683.28
2019-02-12T13:32:13.673Z,96684.14
2019-02-12T13:34:43.570Z,96683.34
2019-02-12T13:37:14.577Z,96677.02
2019-02-12T13:39:44.470Z,96676.44
2019-02-12T13:42:14.387Z,96676.10
2019-02-12T13:44:45.294Z,96681.19
2019-02-12T13:47:15.252Z,96684.87
2019-02-12T13:49:45.075Z,96680.84
2019-02-12T13:52:15.027Z,96686.14
2019-02-12T13:54:44.956Z,96680.59
2019-02-12T13:57:14.930Z,96685.64
2019-02-12T13:59:44.800Z,96681.08
2019-02-12T14:02:14.629Z,96693.72
2019-02-12T14:04:44.507Z,96680.91
2019-02-12T14:07:14.383Z,96699.75
2019-02-12T14:09:44.333Z,96687.60
2019-02-12T14:12:15.788Z,96695.45
2019-02-12T14:14:45.824Z,96695.36
2019-02-12T14:17:15.735Z,96702.03
2019-02-12T14:19:45.702Z,96705.34
2019-02-12T14:22:15.672Z,96702.26
2019-02-12T14:24:45.888Z,96700.37
2019-02-12T14:27:15.875Z,96696.60
2019-02-12T14:29:45.825Z,96710.69
2019-02-12T14:32:15.810Z,96717.39
2019-02-12T14:34:45.678Z,96712.19
2019-02-12T14:37:15.663Z,96719.59
2019-02-12T14:39:45.613Z,96719.72
2019-02-12T14:42:15.573Z,96719.48
2019-02-12T14:44:45.545Z,96721.47
2019-02-12T14:47:15.465Z,96722.78
2019-02-12T14:49:46.367Z,96719.42
2019-02-12T14:52:16.284Z,96725.36
2019-02-12T14:54:46.106Z,96718.33
2019-02-12T14:57:16.060Z,96718.00
2019-02-12T14:59:46.053Z,96726.58
2019-02-12T15:02:16.067Z,96723.06
2019-02-12T15:04:46.047Z,96729.97
2019-02-12T15:07:15.975Z,96721.31
2019-02-12T15:09:46.902Z,96733.55
2019-02-12T15:12:16.868Z,96723.37
2019-02-12T15:14:46.692Z,96716.09
2019-02-12T15:17:16.719Z,96712.09
2019-02-12T15:19:46.658Z,96713.89
2019-02-12T15:22:16.646Z,96719.16
2019-02-12T15:24:46.758Z,96718.66
2019-02-12T15:27:16.663Z,96717.04
2019-02-12T15:29:46.541Z,96719.44
2019-02-12T15:32:16.454Z,96727.26
2019-02-12T15:34:46.411Z,96730.28
2019-02-12T15:37:16.312Z,96735.35
2019-02-12T15:39:46.260Z,96728.75
2019-02-12T15:42:16.514Z,96724.70
2019-02-12T15:44:46.544Z,96728.12
2019-02-12T15:47:16.554Z,96730.13
2019-02-12T15:49:46.438Z,96720.10
2019-02-12T15:52:16.428Z,96724.15
2019-02-12T15:54:46.443Z,96726.50
2019-02-12T15:57:16.381Z,96733.26
2019-02-12T15:59:46.313Z,96730.38
2019-02-12T16:02:16.172Z,96740.04
2019-02-12T16:04:47.797Z,96730.65
2019-02-12T16:07:17.645Z,96739.13
2019-02-12T16:09:47.473Z,96741.30
2019-02-12T16:12:17.402Z,96743.79
2019-02-12T16:14:47.228Z,96742.98
2019-02-12T16:17:17.122Z,96743.44
2019-02-12T16:19:49.030Z,96740.80
2019-02-12T16:22:18.665Z,96743.14
2019-02-12T16:24:48.774Z,96744.59
2019-02-12T16:27:18.691Z,96751.60
2019-02-12T16:29:48.529Z,96757.02
2019-02-12T16:32:18.425Z,96760.75
2019-02-12T16:34:49.307Z,96755.73
2019-02-12T16:37:19.280Z,96765.62
2019-02-12T16:39:49.214Z,96771.28
2019-02-12T16:45:14.392Z,96776.64
2019-02-12T16:47:44.347Z,96778.52
2019-02-12T16:50:14.159Z,96785.61
2019-02-12T16:52:44.031Z,96795.58
2019-02-12T16:55:14.144Z,96807.55
2019-02-12T16:57:44.027Z,96804.27
2019-02-12T17:00:15.745Z,96811.80
2019-02-12T17:02:46.713Z,96812.66
2019-02-12T17:05:16.767Z,96818.84
2019-02-12T17:07:46.728Z,96817.31
2019-02-12T17:10:16.731Z,96814.58
2019-02-12T17:12:46.733Z,96827.85
2019-02-12T17:15:16.694Z,96833.03
2019-02-12T17:17:46.586Z,96827.96
2019-02-12T17:20:17.734Z,96834.04
2019-02-12T17:22:47.637Z,96841.99
2019-02-12T17:25:17.667Z,96843.06
2019-02-12T17:27:48.159Z,96845.97
2019-02-12T17:30:18.129Z,96845.54
2019-02-12T17:32:47.956Z,96853.21
2019-02-12T17:35:19.251Z,96851.04
2019-02-12T17:37:49.410Z,96857.50
2019-02-12T17:40:19.346Z,96860.19
2019-02-12T17:42:49.744Z,96859.69
2019-02-12T17:45:19.776Z,96861.13
2019-02-12T17:47:50.273Z,96863.07
2019-02-12T17:50:20.341Z,96853.89
2019-02-12T17:52:50.284Z,96857.30
2019-02-12T17:55:20.186Z,96866.96
2019-02-12T17:57:50.084Z,96871.78
2019-02-12T18:00:22.768Z,96871.05
2019-02-12T18:02:52.630Z,96865.82
2019-02-12T18:05:22.609Z,96871.67
2019-02-12T18:07:52.563Z,96888.15
2019-02-12T18:10:22.539Z,96884.36
2019-02-12T18:12:52.413Z,96884.27
2019-02-12T18:15:22.413Z,96881.28
2019-02-12T18:17:52.222Z,96884.91
2019-02-12T18:20:26.507Z,96885.67
2019-02-12T18:22:53.781Z,96884.23
2019-02-12T18:25:23.731Z,96880.70
2019-02-12T18:27:53.557Z,96880.45
2019-02-12T18:30:23.573Z,96887.20
2019-02-12T18:32:53.463Z,96891.54
2019-02-12T18:35:23.326Z,96901.66
2019-02-12T18:37:53.229Z,96910.12
2019-02-12T18:40:23.090Z,96907.06
2019-02-12T18:42:52.971Z,96911.67
2019-02-12T18:45:23.367Z,96911.67
2019-02-12T18:47:53.231Z,96908.52
2019-02-12T18:50:23.215Z,96913.92
2019-02-12T18:52:53.153Z,96923.86
2019-02-12T18:55:23.068Z,96921.69
2019-02-12T18:57:52.965Z,96930.26
2019-02-12T19:00:22.975Z,96929.08
2019-02-12T19:02:52.925Z,96926.88
2019-02-12T19:05:22.759Z,96931.16
2019-02-12T19:07:52.772Z,96924.85
2019-02-12T19:10:22.612Z,96927.02
2019-02-12T19:12:52.518Z,96922.69
2019-02-12T19:15:22.499Z,96929.40
2019-02-12T19:17:56.599Z,96927.87
2019-02-12T19:20:26.488Z,96922.36
2019-02-12T19:22:56.460Z,96924.34
2019-02-12T19:25:26.279Z,96927.87
2019-02-12T19:27:57.263Z,96934.09
2019-02-12T19:30:27.087Z,96924.25
2019-02-12T19:32:56.938Z,96921.94
2019-02-12T19:35:26.777Z,96932.58
2019-02-12T19:37:56.662Z,96941.05
2019-02-12T19:40:26.627Z,96936.45
2019-02-12T19:42:56.557Z,96942.23
2019-02-12T19:45:26.429Z,96941.95
2019-02-12T19:47:56.323Z,96933.66
2019-02-12T19:50:26.192Z,96935.00
2019-02-12T19:52:56.077Z,96949.79
2019-02-12T19:55:25.958Z,96948.91
2019-02-12T19:57:55.793Z,96954.66
2019-02-12T20:00:25.720Z,96957.36
2019-02-12T20:02:55.642Z,96961.80
2019-02-12T20:05:25.579Z,96956.56
2019-02-12T20:07:55.483Z,96953.23
2019-02-12T20:10:25.364Z,96957.36
2019-02-12T20:12:55.179Z,96962.95
2019-02-12T20:15:25.117Z,96964.59
2019-02-12T20:17:54.967Z,96957.81
2019-02-12T20:20:24.794Z,96962.41
2019-02-12T20:22:54.653Z,96954.27
2019-02-12T20:25:24.479Z,96958.23
2019-02-12T20:27:54.350Z,96966.37
2019-02-12T20:30:24.239Z,96960.23
2019-02-12T20:32:55.080Z,96966.26
2019-02-12T20:35:24.988Z,96973.55
2019-02-12T20:37:54.938Z,96970.38
2019-02-12T20:40:24.860Z,96969.30
2019-02-12T20:42:54.711Z,96972.88
2019-02-12T20:45:24.773Z,96973.08
2019-02-12T20:47:54.591Z,96970.53
2019-02-12T20:50:24.737Z,96968.42
2019-02-12T20:52:54.640Z,96967.50
2019-02-12T20:55:24.501Z,96965.17
2019-02-12T20:57:54.496Z,96962.98
2019-02-12T21:00:24.525Z,96957.09
2019-02-12T21:02:54.458Z,96961.56
2019-02-12T21:05:25.070Z,96968.92
2019-02-12T21:07:54.974Z,96968.83
2019-02-12T21:10:24.944Z,96963.62
2019-02-12T21:12:54.862Z,96970.84
2019-02-12T21:15:24.979Z,96968.76
2019-02-12T21:17:54.862Z,96969.94
2019-02-12T21:20:24.750Z,96963.18
2019-02-12T21:22:54.802Z,96962.53
2019-02-12T21:25:24.788Z,96956.06
2019-02-12T21:27:54.682Z,96955.33
2019-02-12T21:30:24.696Z,96953.10
2019-02-12T21:32:54.766Z,96949.94
2019-02-12T21:35:24.769Z,96953.55
2019-02-12T21:37:54.663Z,96953.95
2019-02-12T21:40:24.580Z,96966.51
2019-02-12T21:42:54.556Z,96959.64
2019-02-12T21:45:41.278Z,96953.63
2019-02-12T21:48:11.183Z,96958.30
2019-02-12T21:50:41.071Z,96960.29
2019-02-12T21:53:11.005Z,96959.72
2019-02-12T21:55:40.878Z,96965.78
2019-02-12T21:58:10.710Z,96968.68
2019-02-12T22:00:40.754Z,96963.92
2019-02-12T22:03:10.828Z,96971.12
2019-02-12T22:05:40.716Z,96973.76
2019-02-12T22:08:10.664Z,96971.64
2019-02-12T22:10:46.163Z,96970.55
2019-02-12T22:13:12.389Z,96974.09
2019-02-12T22:15:42.289Z,96970.83
2019-02-12T22:18:12.332Z,96968.99
2019-02-12T22:20:42.240Z,96963.83
2019-02-12T22:23:12.268Z,96965.17
2019-02-12T22:25:42.233Z,96964.27
2019-02-12T22:28:12.099Z,96966.95
2019-02-12T22:30:42.001Z,96958.91
2019-02-12T22:33:11.925Z,96963.22
2019-02-12T22:35:41.779Z,96968.78
2019-02-12T22:38:11.731Z,96963.02
2019-02-12T22:40:41.559Z,96965.90
2019-02-12T22:43:11.575Z,96968.66
2019-02-12T22:45:41.428Z,96964.67
2019-02-12T22:48:11.404Z,96974.05
2019-02-12T22:50:41.258Z,96973.11
2019-02-12T22:53:11.134Z,96975.27
2019-02-12T22:55:41.186Z,96980.38
2019-02-12T22:58:11.059Z,96989.13
2019-02-12T23:01:02.140Z,96985.87
2019-02-12T23:03:32.101Z,96988.47
2019-02-12T23:06:02.069Z,96980.91
2019-02-12T23:08:32.019Z,96980.17
2019-02-12T23:11:01.999Z,96975.45
2019-02-12T23:13:31.951Z,96980.46
2019-02-12T23:16:01.983Z,96973.06
2019-02-12T23:18:31.804Z,96973.80
2019-02-12T23:21:01.671Z,96973.64
2019-02-12T23:23:31.568Z,96959.84
2019-02-12T23:26:01.526Z,96938.95
2019-02-12T23:28:32.413Z,96938.45
2019-02-12T23:31:02.415Z,96937.43
2019-02-12T23:33:32.242Z,96941.41
2019-02-12T23:36:02.104Z,96940.68
2019-02-12T23:38:32.013Z,96942.67
2019-02-12T23:41:02.360Z,96947.16
2019-02-12T23:43:32.611Z,96945.19
2019-02-12T23:46:02.538Z,96950.22
2019-02-12T23:48:33.448Z,96951.36
2019-02-12T23:51:03.401Z,96960.16
2019-02-12T23:53:33.295Z,96961.73
2019-02-12T23:56:03.182Z,96969.73
2019-02-12T23:58:33.063Z,96965.63
